Time;durP1;ratioP1;P1;durP2;ratioP2;P2;SDS_P1;SDS_P2;PMS_P1;PMS_P2;Temp;Humidity;BMP_temperature;BMP_pressure;BME280_temperature;BME280_humidity;BME280_pressure;Samples;Min_cycle;Max_cycle;Signal;HPM_P1;HPM_P2
2021/12/29 05:00:57;;;;;;;5.13;0.90;;;9.20;99.90;;;;;;5715128;23;90963;-73
2021/12/29 05:03:23;;;;;;;3.80;1.00;;;9.10;99.90;;;;;;5000854;28;90263;-73
2021/12/29 05:05:55;;;;;;;2.90;1.02;;;9.10;99.90;;;;;;4983125;28;91791;-75
2021/12/29 05:08:25;;;;;;;2.65;0.93;;;9.10;99.90;;;;;;5001777;28;88986;-72
2021/12/29 05:10:54;;;;;;;2.65;0.88;;;9.10;99.90;;;;;;4983015;28;89312;-73
2021/12/29 05:13:20;;;;;;;3.63;0.98;;;9.10;99.90;;;;;;5001420;28;89766;-73
2021/12/29 05:15:46;;;;;;;2.35;0.70;;;9.10;99.90;;;;;;5001058;28;88939;-73
2021/12/29 05:18:12;;;;;;;3.35;1.02;;;9.10;99.90;;;;;;5001347;28;89059;-73
2021/12/29 05:20:38;;;;;;;2.72;1.00;;;9.10;99.90;;;;;;5000911;28;88938;-73
2021/12/29 05:23:03;;;;;;;3.75;0.95;;;9.10;99.90;;;;;;5000936;28;89673;-73
2021/12/29 05:25:29;;;;;;;2.40;0.80;;;9.10;99.90;;;;;;4982702;28;90794;-72
2021/12/29 05:27:56;;;;;;;1.85;0.77;;;9.10;99.90;;;;;;5001306;28;88999;-73
2021/12/29 05:30:22;;;;;;;1.95;0.70;;;9.20;99.90;;;;;;5001125;28;89656;-72
2021/12/29 05:32:48;;;;;;;2.08;0.70;;;9.20;99.90;;;;;;4982631;28;92364;-73
2021/12/29 05:35:14;;;;;;;2.92;0.70;;;9.20;99.90;;;;;;5000881;28;88903;-72
2021/12/29 05:37:40;;;;;;;2.47;0.82;;;9.20;99.90;;;;;;5001136;28;89318;-72
2021/12/29 05:40:07;;;;;;;3.70;0.80;;;9.30;99.90;;;;;;4982496;28;89400;-72
2021/12/29 05:42:34;;;;;;;4.22;0.90;;;9.20;99.90;;;;;;5000192;28;90124;-72
2021/12/29 05:45:08;;;;;;;1.85;0.70;;;9.10;99.90;;;;;;4982517;28;89712;-73
2021/12/29 05:47:35;;;;;;;4.30;1.08;;;9.10;99.90;;;;;;5000590;28;88499;-72
2021/12/29 05:50:06;;;;;;;1.83;0.80;;;9.10;99.90;;;;;;5000911;28;88819;-73
2021/12/29 05:52:32;;;;;;;3.53;0.95;;;9.10;99.90;;;;;;4999517;28;88496;-72
2021/12/29 05:54:57;;;;;;;1.88;0.70;;;9.10;99.90;;;;;;5000692;28;88903;-72
2021/12/29 05:57:23;;;;;;;2.83;0.82;;;9.10;99.90;;;;;;5000794;28;88789;-73
2021/12/29 05:59:49;;;;;;;2.90;0.75;;;9.00;99.90;;;;;;5000632;28;89129;-72
2021/12/29 06:02:14;;;;;;;3.80;0.88;;;9.10;99.90;;;;;;4999659;28;88872;-72
2021/12/29 06:04:40;;;;;;;2.63;1.00;;;9.10;99.90;;;;;;4981955;28;91827;-73
2021/12/29 06:07:05;;;;;;;2.88;0.70;;;9.00;99.90;;;;;;5000360;28;88786;-72
2021/12/29 06:09:31;;;;;;;1.65;0.88;;;9.00;99.90;;;;;;5000512;28;89154;-72
2021/12/29 06:11:57;;;;;;;2.08;0.80;;;9.00;99.90;;;;;;4999999;28;90819;-72
2021/12/29 06:14:22;;;;;;;2.22;0.95;;;9.00;99.90;;;;;;5007777;28;89302;-72
2021/12/29 06:16:48;;;;;;;1.40;0.82;;;9.00;99.90;;;;;;5025190;28;88693;-72
2021/12/29 06:19:14;;;;;;;2.83;0.73;;;9.00;99.90;;;;;;5015467;28;89189;-72
2021/12/29 06:21:40;;;;;;;2.03;0.80;;;9.00;99.90;;;;;;4981652;28;90787;-72
2021/12/29 06:24:07;;;;;;;2.83;0.60;;;9.10;99.90;;;;;;5000008;28;89626;-72
2021/12/29 06:26:33;;;;;;;2.45;0.80;;;9.10;99.90;;;;;;4981896;28;88837;-73
2021/12/29 06:28:59;;;;;;;2.17;0.70;;;9.10;99.90;;;;;;5000312;28;88806;-72
2021/12/29 06:31:25;;;;;;;2.35;0.77;;;9.10;99.90;;;;;;4999581;28;89604;-73
2021/12/29 06:33:51;;;;;;;3.08;0.77;;;9.10;99.90;;;;;;4999611;28;88959;-74
2021/12/29 06:36:17;;;;;;;3.15;0.75;;;9.10;99.90;;;;;;4999823;28;89164;-74
2021/12/29 06:38:43;;;;;;;3.30;1.08;;;9.10;99.90;;;;;;5000404;28;89314;-74
2021/12/29 06:41:08;;;;;;;1.58;0.60;;;9.20;99.90;;;;;;4999400;28;91300;-75
2021/12/29 06:43:34;;;;;;;1.80;0.63;;;9.20;99.90;;;;;;4981315;28;90677;-75
2021/12/29 06:45:59;;;;;;;2.72;0.98;;;9.30;99.90;;;;;;5000173;28;89078;-74
2021/12/29 06:48:25;;;;;;;4.82;1.20;;;9.20;99.90;;;;;;4999729;28;89189;-74
2021/12/29 06:50:50;;;;;;;4.13;0.75;;;9.20;99.90;;;;;;4999379;28;90423;-74
2021/12/29 06:53:16;;;;;;;3.53;0.90;;;9.20;99.90;;;;;;4999277;28;89636;-75
2021/12/29 06:55:43;;;;;;;2.80;1.00;;;9.20;99.90;;;;;;4999872;28;88954;-72
2021/12/29 06:58:09;;;;;;;4.45;0.98;;;9.20;99.90;;;;;;4999983;28;89141;-72
2021/12/29 07:00:35;;;;;;;3.97;1.00;;;9.20;99.90;;;;;;4999149;28;89911;-72
2021/12/29 07:03:01;;;;;;;2.33;0.80;;;9.10;99.90;;;;;;4998447;28;89641;-72
2021/12/29 07:05:27;;;;;;;3.03;0.90;;;9.10;99.90;;;;;;4999698;28;89031;-72
2021/12/29 07:07:54;;;;;;;3.13;1.00;;;9.10;99.90;;;;;;4999710;28;89182;-72
2021/12/29 07:10:20;;;;;;;4.28;1.17;;;9.20;99.90;;;;;;4999350;28;89184;-72
2021/12/29 07:12:46;;;;;;;2.92;0.80;;;9.10;99.90;;;;;;4998966;28;89201;-72
2021/12/29 07:15:11;;;;;;;2.25;0.68;;;9.20;99.90;;;;;;4999513;28;88915;-72
2021/12/29 07:17:37;;;;;;;2.30;0.80;;;9.20;99.90;;;;;;4999112;28;89299;-72
2021/12/29 07:20:04;;;;;;;2.67;1.00;;;9.20;99.90;;;;;;4999052;28;89574;-72
2021/12/29 07:22:30;;;;;;;4.60;1.05;;;9.20;99.90;;;;;;4998481;28;89626;-72
2021/12/29 07:24:56;;;;;;;2.25;0.90;;;9.20;99.90;;;;;;4981128;28;89520;-73
2021/12/29 07:27:21;;;;;;;2.22;0.80;;;9.20;99.90;;;;;;4999448;28;88860;-73
2021/12/29 07:29:47;;;;;;;2.53;1.00;;;9.30;99.90;;;;;;4999453;28;89954;-73
2021/12/29 07:32:13;;;;;;;2.88;0.80;;;9.20;99.90;;;;;;4998435;28;89104;-72
2021/12/29 07:34:38;;;;;;;2.50;0.70;;;9.20;99.90;;;;;;4999111;28;88892;-72
2021/12/29 07:37:04;;;;;;;3.03;1.00;;;9.20;99.90;;;;;;4999597;28;89569;-73
2021/12/29 07:39:30;;;;;;;2.83;1.08;;;9.20;99.90;;;;;;4999017;28;88980;-72
2021/12/29 07:41:55;;;;;;;4.47;1.10;;;9.20;99.90;;;;;;4998651;28;89079;-72
2021/12/29 07:44:22;;;;;;;2.20;0.80;;;9.20;99.90;;;;;;5000034;28;88931;-72
2021/12/29 07:46:52;;;;;;;3.00;1.05;;;9.20;99.90;;;;;;4999224;28;89241;-72
2021/12/29 07:49:18;;;;;;;2.78;0.90;;;9.20;99.90;;;;;;4980501;28;91875;-72
2021/12/29 07:51:44;;;;;;;5.45;1.30;;;9.30;99.90;;;;;;4999652;28;89221;-74
2021/12/29 07:54:10;;;;;;;3.95;1.05;;;9.20;99.90;;;;;;5001142;28;88993;-73
2021/12/29 07:56:36;;;;;;;3.10;1.20;;;9.30;99.90;;;;;;4999465;28;88913;-73
2021/12/29 07:59:02;;;;;;;3.90;1.02;;;9.20;99.90;;;;;;4981314;28;91727;-74
2021/12/29 08:01:28;;;;;;;3.58;1.42;;;9.20;99.90;;;;;;4998294;28;89181;-74
2021/12/29 08:03:53;;;;;;;4.95;1.30;;;9.30;99.90;;;;;;5000024;28;88926;-73
2021/12/29 08:06:19;;;;;;;5.90;1.75;;;9.30;99.90;;;;;;5000095;28;88904;-73
2021/12/29 08:08:45;;;;;;;2.63;1.17;;;9.30;99.90;;;;;;4998581;28;90364;-73
2021/12/29 08:11:11;;;;;;;4.93;1.45;;;9.30;99.90;;;;;;4998448;28;89009;-73
2021/12/29 08:13:37;;;;;;;7.28;1.40;;;9.30;99.90;;;;;;4980448;28;89016;-73
2021/12/29 08:16:03;;;;;;;6.78;1.40;;;9.30;99.90;;;;;;4984529;28;88994;-74
2021/12/29 08:18:28;;;;;;;4.20;1.30;;;9.30;99.90;;;;;;5001714;28;89937;-74
2021/12/29 08:20:54;;;;;;;5.50;1.38;;;9.30;99.90;;;;;;5004592;28;89161;-75
2021/12/29 08:23:20;;;;;;;4.63;1.20;;;9.40;99.90;;;;;;4986585;28;89457;-74
2021/12/29 08:25:45;;;;;;;3.72;1.00;;;9.40;99.90;;;;;;5004443;28;88903;-75
2021/12/29 08:28:12;;;;;;;5.38;1.30;;;9.40;99.90;;;;;;4986794;28;91378;-77
2021/12/29 08:30:38;;;;;;;7.40;1.65;;;9.40;99.90;;;;;;5002215;28;89141;-77
2021/12/29 08:33:04;;;;;;;5.20;1.63;;;9.50;99.90;;;;;;4983684;28;89048;-74
2021/12/29 08:35:31;;;;;;;2.78;1.10;;;9.50;99.90;;;;;;5002015;28;89109;-74
2021/12/29 08:37:57;;;;;;;5.35;1.38;;;9.50;99.90;;;;;;5001562;28;91143;-74
2021/12/29 08:40:23;;;;;;;5.18;1.50;;;9.60;99.90;;;;;;5001797;28;89494;-74
2021/12/29 08:42:49;;;;;;;3.42;1.02;;;9.60;99.90;;;;;;4983485;28;89137;-74
2021/12/29 08:45:16;;;;;;;5.00;1.30;;;9.60;99.90;;;;;;5001865;28;89054;-74
2021/12/29 08:47:43;;;;;;;5.72;1.73;;;9.60;99.90;;;;;;5001969;28;89006;-74
2021/12/29 08:50:13;;;;;;;3.95;1.70;;;9.60;99.90;;;;;;4983437;28;90840;-78
2021/12/29 08:52:40;;;;;;;4.68;2.00;;;9.70;99.90;;;;;;4983339;28;89102;-74
2021/12/29 08:55:07;;;;;;;4.57;1.50;;;9.60;99.90;;;;;;5001555;28;88907;-74
2021/12/29 08:57:33;;;;;;;4.88;1.67;;;9.60;99.90;;;;;;5000971;28;89876;-74
2021/12/29 08:59:58;;;;;;;3.92;1.23;;;9.60;99.90;;;;;;5001126;28;89773;-74
2021/12/29 09:02:25;;;;;;;5.03;1.58;;;9.60;99.90;;;;;;5001280;28;89066;-74
2021/12/29 09:04:51;;;;;;;5.93;1.50;;;9.70;99.90;;;;;;5002709;28;88507;-74
2021/12/29 09:07:17;;;;;;;4.47;1.50;;;9.70;99.90;;;;;;5002122;28;88869;-73
2021/12/29 09:09:43;;;;;;;5.25;1.50;;;9.80;99.90;;;;;;5001360;28;89873;-75
2021/12/29 09:12:09;;;;;;;6.47;1.60;;;9.90;99.90;;;;;;5002308;28;88993;-76
2021/12/29 09:14:34;;;;;;;6.55;1.55;;;10.00;99.90;;;;;;5002209;28;88913;-73
2021/12/29 09:17:00;;;;;;;6.07;1.70;;;10.10;99.90;;;;;;5001761;28;89587;-73
2021/12/29 09:19:26;;;;;;;7.72;1.70;;;10.20;99.90;;;;;;4983087;28;90706;-74
2021/12/29 09:21:56;;;;;;;6.07;1.30;;;10.20;99.90;;;;;;5001063;28;88864;-74
2021/12/29 09:24:22;;;;;;;7.45;1.50;;;10.30;99.90;;;;;;4985233;28;89205;-73
2021/12/29 09:26:48;;;;;;;7.93;1.60;;;10.40;99.90;;;;;;5006387;28;89698;-73
2021/12/29 09:29:14;;;;;;;5.10;1.40;;;10.40;99.90;;;;;;5002792;28;89402;-75
2021/12/29 09:31:39;;;;;;;7.50;1.60;;;10.50;99.90;;;;;;5021490;28;88759;-75
2021/12/29 09:34:06;;;;;;;3.60;1.08;;;10.50;99.90;;;;;;5026067;28;89369;-75
2021/12/29 09:36:32;;;;;;;3.58;1.33;;;10.50;99.90;;;;;;5003662;28;88916;-75
2021/12/29 09:38:57;;;;;;;4.28;1.40;;;10.50;99.90;;;;;;5002427;28;90784;-76
2021/12/29 09:41:23;;;;;;;4.70;1.25;;;10.50;99.90;;;;;;5001800;28;89044;-76
2021/12/29 09:43:49;;;;;;;5.30;1.48;;;10.40;99.90;;;;;;5001024;28;89220;-76
2021/12/29 09:46:15;;;;;;;5.63;1.42;;;10.40;99.90;;;;;;5000657;28;89006;-76
2021/12/29 09:48:41;;;;;;;5.57;1.38;;;10.50;99.90;;;;;;5001400;28;89064;-76
2021/12/29 09:51:11;;;;;;;5.07;1.40;;;10.50;99.90;;;;;;5002394;28;89018;-75
2021/12/29 09:53:38;;;;;;;5.63;1.50;;;10.60;99.90;;;;;;5001370;28;89147;-72
2021/12/29 09:56:04;;;;;;;4.85;1.30;;;10.60;99.90;;;;;;5000784;28;89146;-73
2021/12/29 09:58:29;;;;;;;4.15;1.20;;;10.50;99.90;;;;;;5000680;28;89311;-72
2021/12/29 10:00:59;;;;;;;5.18;1.50;;;10.50;99.90;;;;;;5000588;28;89407;-72
2021/12/29 10:03:27;;;;;;;4.38;1.25;;;10.60;99.90;;;;;;4982528;28;89335;-72
2021/12/29 10:05:57;;;;;;;4.70;1.40;;;10.60;99.90;;;;;;5000197;28;89075;-73
2021/12/29 10:08:49;;;;;;;7.60;1.45;;;10.70;99.90;;;;;;4999825;28;89366;-72
2021/12/29 10:11:36;;;;;;;3.28;1.25;;;10.70;99.90;;;;;;4999608;28;88864;-72
2021/12/29 10:14:11;;;;;;;3.97;1.10;;;10.70;99.90;;;;;;5000335;28;89113;-73
2021/12/29 10:16:38;;;;;;;2.85;1.13;;;10.80;99.90;;;;;;5000673;28;89829;-77
2021/12/29 10:19:10;;;;;;;3.50;1.15;;;10.90;99.90;;;;;;5000138;28;89174;-73
2021/12/29 10:21:42;;;;;;;3.38;1.00;;;10.90;99.90;;;;;;4981566;28;89003;-73
2021/12/29 10:24:08;;;;;;;3.10;1.00;;;11.00;99.90;;;;;;5000220;28;88833;-73
2021/12/29 10:26:36;;;;;;;7.22;1.77;;;11.10;99.90;;;;;;5000247;28;89715;-72
2021/12/29 10:29:07;;;;;;;4.43;1.70;;;11.20;99.90;;;;;;4999961;28;89044;-73
2021/12/29 10:31:40;;;;;;;5.45;1.70;;;11.20;99.90;;;;;;4999906;28;88983;-75
2021/12/29 10:34:13;;;;;;;3.50;1.40;;;11.10;99.90;;;;;;4999765;28;89034;-72
2021/12/29 10:36:45;;;;;;;3.92;1.48;;;11.00;99.90;;;;;;4999908;28;88907;-72
2021/12/29 10:39:24;;;;;;;6.95;1.67;;;11.00;99.90;;;;;;4999906;28;89747;-72
2021/12/29 10:42:01;;;;;;;6.65;1.90;;;11.10;99.90;;;;;;4999786;28;88978;-72
2021/12/29 10:44:33;;;;;;;6.82;2.50;;;11.20;99.90;;;;;;5000104;28;89379;-73
2021/12/29 10:47:17;;;;;;;7.55;2.25;;;11.20;99.90;;;;;;4999694;28;89926;-73
2021/12/29 10:50:08;;;;;;;5.45;1.85;;;11.40;99.90;;;;;;4999952;28;90062;-72
2021/12/29 10:52:53;;;;;;;7.13;2.05;;;11.40;99.90;;;;;;4991537;28;89225;-73
2021/12/29 10:55:32;;;;;;;5.38;1.88;;;11.50;99.90;;;;;;4999875;28;88978;-73
2021/12/29 10:58:16;;;;;;;8.15;1.73;;;11.40;99.90;;;;;;4981698;28;91029;-72
2021/12/29 11:00:49;;;;;;;8.48;2.20;;;11.40;99.90;;;;;;4998605;28;89263;-74
2021/12/29 11:03:20;;;;;;;6.80;1.88;;;11.30;99.90;;;;;;4999639;28;88788;-73
2021/12/29 11:05:48;;;;;;;13.60;2.85;;;11.30;99.90;;;;;;4999616;28;89028;-73
2021/12/29 11:08:16;;;;;;;6.75;1.80;;;11.30;99.90;;;;;;4999329;28;90590;-73
2021/12/29 11:10:44;;;;;;;6.80;1.52;;;11.20;99.90;;;;;;5001225;28;88893;-74
2021/12/29 11:13:12;;;;;;;5.15;2.13;;;11.20;99.90;;;;;;5002769;28;88837;-73
2021/12/29 11:15:41;;;;;;;7.28;1.60;;;11.10;99.90;;;;;;5001407;28;89298;-73
2021/12/29 11:18:10;;;;;;;10.60;1.88;;;11.20;99.90;;;;;;4984504;28;92077;-73
2021/12/29 11:20:36;;;;;;;5.28;1.52;;;11.20;99.90;;;;;;5000939;28;88899;-73
2021/12/29 11:23:19;;;;;;;5.50;1.85;;;11.30;99.90;;;;;;5001845;28;88949;-73
2021/12/29 11:25:45;;;;;;;4.50;1.60;;;11.30;99.90;;;;;;5002683;28;88867;-73
2021/12/29 11:28:31;;;;;;;5.00;2.08;;;11.30;99.90;;;;;;5001941;28;89104;-72
2021/12/29 11:30:59;;;;;;;5.53;1.45;;;11.20;99.90;;;;;;5001152;28;90931;-72
2021/12/29 11:33:29;;;;;;;4.68;1.55;;;11.20;99.90;;;;;;5001183;28;88688;-73
2021/12/29 11:35:55;;;;;;;4.93;1.45;;;11.10;99.90;;;;;;4983782;28;89229;-74
2021/12/29 11:38:22;;;;;;;5.97;1.60;;;11.00;99.90;;;;;;5001977;28;89416;-78
2021/12/29 11:40:56;;;;;;;7.43;1.60;;;11.00;99.90;;;;;;4999142;28;89052;-78
2021/12/29 11:43:22;;;;;;;5.63;1.65;;;10.80;99.90;;;;;;5001097;28;89035;-79
2021/12/29 11:45:49;;;;;;;3.05;1.50;;;10.80;99.90;;;;;;5002302;28;88893;-78
2021/12/29 11:48:21;;;;;;;4.25;1.50;;;11.00;99.90;;;;;;4985888;28;91377;-78
2021/12/29 11:50:52;;;;;;;3.75;1.30;;;11.00;99.90;;;;;;4982627;28;90941;-78
2021/12/29 11:53:34;;;;;;;5.68;1.60;;;11.20;99.90;;;;;;4986581;28;89301;-78
2021/12/29 11:56:14;;;;;;;3.88;1.60;;;11.20;99.90;;;;;;4987393;28;88887;-78
2021/12/29 11:58:42;;;;;;;6.30;1.50;;;11.30;99.90;;;;;;4985379;28;91655;-78
2021/12/29 12:01:11;;;;;;;5.55;1.52;;;11.20;99.90;;;;;;4984590;28;92309;-78
2021/12/29 12:03:51;;;;;;;5.88;1.73;;;11.10;99.90;;;;;;4986538;28;88999;-78
2021/12/29 12:06:26;;;;;;;5.55;1.58;;;11.10;99.90;;;;;;4985717;28;89103;-78
2021/12/29 12:09:14;;;;;;;4.38;1.45;;;11.20;99.90;;;;;;4980988;28;91973;-78
2021/12/29 12:11:49;;;;;;;4.65;1.50;;;11.10;99.90;;;;;;4963745;28;91257;-78
2021/12/29 12:14:30;;;;;;;7.55;1.42;;;10.90;99.90;;;;;;4982280;28;88883;-78
2021/12/29 12:17:01;;;;;;;5.88;1.63;;;10.70;99.90;;;;;;4964145;28;89084;-77
2021/12/29 12:19:30;;;;;;;4.82;1.67;;;10.70;99.90;;;;;;4982265;28;90101;-77
2021/12/29 12:22:15;;;;;;;3.15;1.35;;;10.70;99.90;;;;;;4980159;28;91832;-78
2021/12/29 12:24:56;;;;;;;4.47;1.60;;;10.70;99.90;;;;;;4982900;28;89268;-74
2021/12/29 12:27:36;;;;;;;8.27;1.55;;;10.70;99.90;;;;;;4982535;28;88851;-77
2021/12/29 12:30:07;;;;;;;6.20;1.50;;;10.70;99.90;;;;;;4983840;28;89928;-77
2021/12/29 12:32:50;;;;;;;15.95;9.52;;;10.70;99.90;;;;;;4965157;28;90823;-77
2021/12/29 12:35:35;;;;;;;9.13;4.63;;;10.60;99.90;;;;;;4982230;28;88953;-77
2021/12/29 12:38:35;;;;;;;5.20;1.63;;;10.80;99.90;;;;;;4982302;28;89103;-77
2021/12/29 12:41:03;;;;;;;11.18;2.75;;;10.70;99.90;;;;;;4937493;28;93412;-77
2021/12/29 12:43:29;;;;;;;6.28;1.67;;;10.70;99.90;;;;;;4979902;28;92455;-77
2021/12/29 12:45:55;;;;;;;7.63;1.27;;;10.80;99.90;;;;;;4993433;28;88965;-78
2021/12/29 12:48:32;;;;;;;7.75;4.18;;;10.80;99.90;;;;;;5006932;28;88397;-77
2021/12/29 12:51:12;;;;;;;5.03;1.42;;;10.70;99.90;;;;;;4990488;28;89643;-77
2021/12/29 12:53:38;;;;;;;7.50;2.20;;;10.70;99.90;;;;;;4981687;28;89331;-77
2021/12/29 12:56:06;;;;;;;6.72;2.03;;;10.60;99.90;;;;;;4981657;28;88869;-77
2021/12/29 12:58:44;;;;;;;6.53;1.70;;;10.50;99.90;;;;;;4981729;28;89661;-77
2021/12/29 13:01:16;;;;;;;7.15;1.60;;;10.40;99.90;;;;;;4979678;28;90237;-77
2021/12/29 13:03:43;;;;;;;9.23;1.70;;;10.50;99.90;;;;;;4980825;28;89804;-76
2021/12/29 13:06:17;;;;;;;8.95;2.00;;;10.50;99.90;;;;;;4981561;28;89048;-77
2021/12/29 13:08:45;;;;;;;15.88;2.17;;;10.50;99.90;;;;;;4981350;28;89010;-77
2021/12/29 13:11:14;;;;;;;5.90;1.55;;;10.60;99.90;;;;;;4980846;28;89901;-77
2021/12/29 13:13:48;;;;;;;3.90;1.50;;;10.60;99.90;;;;;;4979411;28;92377;-77
2021/12/29 13:16:19;;;;;;;5.18;1.15;;;10.70;99.90;;;;;;4980934;28;89018;-77
2021/12/29 13:18:46;;;;;;;6.03;1.88;;;10.80;99.90;;;;;;4981623;28;88894;-77
2021/12/29 13:21:16;;;;;;;5.88;1.50;;;10.90;99.90;;;;;;4981042;28;89870;-77
2021/12/29 13:23:44;;;;;;;3.28;1.30;;;10.90;99.90;;;;;;4962868;28;92153;-77
2021/12/29 13:26:10;;;;;;;4.30;1.17;;;10.90;99.90;;;;;;4981794;28;89019;-76
2021/12/29 13:28:36;;;;;;;5.25;1.30;;;10.90;99.90;;;;;;4981771;28;89075;-77
2021/12/29 13:31:28;;;;;;;7.50;1.60;;;10.90;99.90;;;;;;4980860;28;90092;-77
2021/12/29 13:33:56;;;;;;;3.75;1.20;;;10.90;99.90;;;;;;4985683;28;89413;-76
2021/12/29 13:36:24;;;;;;;5.00;1.30;;;10.90;99.90;;;;;;4966746;28;89104;-79
2021/12/29 13:38:53;;;;;;;5.60;1.45;;;10.90;99.90;;;;;;4963711;28;89227;-78
2021/12/29 13:41:25;;;;;;;6.78;1.80;;;10.90;99.90;;;;;;4963789;28;91508;-77
2021/12/29 13:43:53;;;;;;;4.25;1.30;;;10.90;99.90;;;;;;4981174;28;89044;-76
2021/12/29 13:46:21;;;;;;;4.50;1.10;;;10.90;99.90;;;;;;4980634;28;89109;-77
2021/12/29 13:48:50;;;;;;;4.43;1.70;;;11.00;99.90;;;;;;4963152;28;89056;-77
2021/12/29 13:51:16;;;;;;;6.22;1.40;;;10.90;99.90;;;;;;4980424;28;90380;-76
2021/12/29 13:53:52;;;;;;;6.25;1.70;;;10.90;99.90;;;;;;4980289;28;89603;-76
2021/12/29 13:56:19;;;;;;;6.13;2.20;;;10.80;99.90;;;;;;4963075;28;89071;-76
2021/12/29 13:59:07;;;;;;;5.45;1.80;;;10.70;99.90;;;;;;4980726;28;89176;-77
2021/12/29 14:01:39;;;;;;;6.70;2.17;;;10.70;99.90;;;;;;4979717;28;89032;-77
2021/12/29 14:04:05;;;;;;;5.43;1.45;;;10.70;99.90;;;;;;4980112;28;89051;-75
2021/12/29 14:06:31;;;;;;;4.05;1.55;;;10.60;99.90;;;;;;4980707;28;88993;-76
2021/12/29 14:08:57;;;;;;;7.15;2.13;;;10.60;99.90;;;;;;4978987;28;89399;-77
2021/12/29 14:11:27;;;;;;;5.97;1.95;;;10.70;99.90;;;;;;4978744;28;92545;-76
2021/12/29 14:14:22;;;;;;;4.45;2.33;;;10.70;99.90;;;;;;4979499;28;88976;-77
2021/12/29 14:16:53;;;;;;;5.97;2.47;;;10.60;99.90;;;;;;4962980;28;89134;-80
2021/12/29 14:19:28;;;;;;;4.95;2.55;;;10.60;99.90;;;;;;4980518;28;88827;-77
2021/12/29 14:21:54;;;;;;;5.18;2.30;;;10.60;99.90;;;;;;4978609;28;92137;-74
2021/12/29 14:24:21;;;;;;;6.78;2.40;;;10.50;99.90;;;;;;4979824;28;89364;-76
2021/12/29 14:26:55;;;;;;;7.53;2.95;;;10.50;99.90;;;;;;4980117;28;88839;-77
2021/12/29 14:29:21;;;;;;;9.93;2.50;;;10.40;99.90;;;;;;4979872;28;89052;-77
2021/12/29 14:31:53;;;;;;;6.65;2.22;;;10.30;99.90;;;;;;4979793;28;89258;-77
2021/12/29 14:34:21;;;;;;;7.55;1.90;;;10.30;99.90;;;;;;4979758;28;88958;-77
2021/12/29 14:36:50;;;;;;;8.15;2.13;;;10.30;99.90;;;;;;4980227;28;89238;-77
2021/12/29 14:39:25;;;;;;;4.28;2.20;;;10.20;99.90;;;;;;4979810;28;89174;-78
2021/12/29 14:42:12;;;;;;;7.10;1.70;;;10.10;99.90;;;;;;4978272;28;92968;-77
2021/12/29 14:44:52;;;;;;;3.97;1.50;;;10.10;99.90;;;;;;4979939;28;88966;-77
2021/12/29 14:47:17;;;;;;;5.18;1.95;;;10.10;99.90;;;;;;4978449;28;88947;-77
2021/12/29 14:49:44;;;;;;;7.57;3.33;;;10.00;99.90;;;;;;4979602;28;89332;-76
2021/12/29 14:52:15;;;;;;;10.40;4.07;;;10.00;99.90;;;;;;4977672;28;92777;-77
2021/12/29 14:54:54;;;;;;;9.55;3.63;;;10.00;99.90;;;;;;4978218;28;92272;-77
2021/12/29 14:57:30;;;;;;;7.53;3.90;;;9.90;99.90;;;;;;4979856;28;89144;-73
2021/12/29 15:00:03;;;;;;;7.70;2.53;;;9.90;99.90;;;;;;4962140;28;89294;-73
2021/12/29 15:02:28;;;;;;;7.72;2.00;;;9.90;99.90;;;;;;4978507;28;89827;-73
2021/12/29 15:05:23;;;;;;;3.78;1.70;;;9.90;99.90;;;;;;4979791;28;88994;-73
2021/12/29 15:07:55;;;;;;;3.42;1.50;;;9.90;99.90;;;;;;4973221;28;89006;-77
2021/12/29 15:10:36;;;;;;;4.57;1.75;;;9.80;99.90;;;;;;4961988;28;88969;-77
2021/12/29 15:13:03;;;;;;;4.50;1.42;;;9.80;99.90;;;;;;4978911;28;90035;-77
2021/12/29 15:15:37;;;;;;;4.45;1.50;;;9.80;99.90;;;;;;4979424;28;88876;-77
2021/12/29 15:18:14;;;;;;;5.82;1.83;;;9.70;99.90;;;;;;4979756;28;89252;-77
2021/12/29 15:20:45;;;;;;;4.07;1.60;;;9.70;99.90;;;;;;4979569;28;88864;-78
2021/12/29 15:23:13;;;;;;;4.95;1.52;;;9.60;99.90;;;;;;4978873;28;89646;-77
2021/12/29 15:25:39;;;;;;;5.28;1.27;;;9.60;99.90;;;;;;4976835;28;91001;-77
2021/12/29 15:28:06;;;;;;;10.15;2.03;;;9.60;99.90;;;;;;4979238;28;88869;-77
2021/12/29 15:30:36;;;;;;;6.65;1.75;;;9.50;99.90;;;;;;4979252;28;89166;-77
2021/12/29 15:33:03;;;;;;;6.63;1.67;;;9.50;99.90;;;;;;4979233;28;89320;-77
2021/12/29 15:35:28;;;;;;;3.10;1.45;;;9.50;99.90;;;;;;4979546;28;89258;-72
2021/12/29 15:37:54;;;;;;;6.05;1.52;;;9.50;99.90;;;;;;4961605;28;88868;-78
2021/12/29 15:40:21;;;;;;;5.82;1.48;;;9.40;99.90;;;;;;4977729;28;89256;-77
2021/12/29 15:42:48;;;;;;;5.32;1.45;;;9.40;99.90;;;;;;4979010;28;89082;-77
2021/12/29 15:45:16;;;;;;;3.88;1.13;;;9.40;99.90;;;;;;4979343;28;89699;-77
2021/12/29 15:47:42;;;;;;;7.07;1.35;;;9.40;99.90;;;;;;4979903;28;88425;-77
2021/12/29 15:50:11;;;;;;;6.18;1.52;;;9.40;99.90;;;;;;4979483;28;88352;-72
2021/12/29 15:52:37;;;;;;;5.25;1.70;;;9.40;99.90;;;;;;4978141;28;90195;-73
2021/12/29 15:55:04;;;;;;;6.25;1.58;;;9.30;99.90;;;;;;4977991;28;89349;-77
2021/12/29 15:57:29;;;;;;;3.90;1.52;;;9.40;99.90;;;;;;4995923;28;88370;-75
2021/12/29 15:59:55;;;;;;;5.38;2.30;;;9.30;99.90;;;;;;5003108;28;88270;-81
2021/12/29 16:02:22;;;;;;;9.27;2.80;;;9.30;99.90;;;;;;4983183;28;89633;-75
2021/12/29 16:04:49;;;;;;;7.38;3.55;;;9.30;99.90;;;;;;4980646;28;88851;-71
2021/12/29 16:07:15;;;;;;;9.73;2.97;;;9.30;99.90;;;;;;4961907;28;89001;-77
2021/12/29 16:09:44;;;;;;;4.57;3.15;;;9.30;99.90;;;;;;4961497;28;88920;-77
2021/12/29 16:12:09;;;;;;;7.65;5.00;;;9.30;99.90;;;;;;4978163;28;90348;-77
2021/12/29 16:14:35;;;;;;;6.72;4.20;;;9.30;99.90;;;;;;4979161;28;88951;-76
2021/12/29 16:17:00;;;;;;;9.45;4.43;;;9.30;99.90;;;;;;4978548;28;88847;-72
2021/12/29 16:19:28;;;;;;;9.25;4.45;;;9.30;99.90;;;;;;4979428;28;89190;-75
2021/12/29 16:21:55;;;;;;;7.10;3.92;;;9.40;99.90;;;;;;4978542;28;89017;-73
2021/12/29 16:24:21;;;;;;;10.48;5.90;;;9.40;99.90;;;;;;4979027;28;89000;-76
2021/12/29 16:26:47;;;;;;;7.43;4.18;;;9.30;99.90;;;;;;4979797;28;88908;-75
2021/12/29 16:29:12;;;;;;;9.27;4.90;;;9.30;99.90;;;;;;4963300;28;88940;-75
2021/12/29 16:31:38;;;;;;;6.10;3.03;;;9.30;99.90;;;;;;4962578;28;91488;-77
2021/12/29 16:34:04;;;;;;;5.85;3.55;;;9.30;99.90;;;;;;4963801;28;90546;-77
2021/12/29 16:36:30;;;;;;;9.20;4.38;;;9.20;99.90;;;;;;4965848;28;89196;-73
2021/12/29 16:38:57;;;;;;;11.32;5.80;;;9.20;99.90;;;;;;4966742;28;89020;-75
2021/12/29 16:41:23;;;;;;;10.32;5.47;;;9.20;99.90;;;;;;4983050;28;90023;-73
2021/12/29 16:43:49;;;;;;;17.35;6.80;;;9.20;99.90;;;;;;4965215;28;91788;-74
2021/12/29 16:46:17;;;;;;;12.02;6.35;;;9.10;99.90;;;;;;4984746;28;88939;-74
2021/12/29 16:48:42;;;;;;;9.90;5.78;;;9.10;99.90;;;;;;4985722;28;88796;-76
2021/12/29 16:51:08;;;;;;;10.95;4.60;;;9.10;99.90;;;;;;4983755;28;90161;-74
2021/12/29 16:53:33;;;;;;;10.95;4.75;;;9.10;99.90;;;;;;4967193;28;90284;-73
2021/12/29 16:55:59;;;;;;;8.10;4.00;;;9.10;99.90;;;;;;4984306;28;88927;-74
2021/12/29 16:58:25;;;;;;;8.57;4.28;;;9.10;99.90;;;;;;4986714;28;89179;-77
2021/12/29 17:00:52;;;;;;;8.75;4.10;;;9.00;99.90;;;;;;4966531;28;92902;-74
2021/12/29 17:03:18;;;;;;;7.65;4.15;;;9.00;99.90;;;;;;4983714;28;91278;-75
2021/12/29 17:05:44;;;;;;;7.40;4.03;;;9.00;99.90;;;;;;4965904;28;88849;-74
2021/12/29 17:08:10;;;;;;;8.18;3.10;;;9.00;99.90;;;;;;4984263;28;88902;-74
2021/12/29 17:10:35;;;;;;;6.75;3.45;;;9.00;99.90;;;;;;4965698;28;91902;-74
2021/12/29 17:13:04;;;;;;;7.47;3.25;;;8.90;99.90;;;;;;4965979;28;91082;-77
2021/12/29 17:15:30;;;;;;;8.88;3.50;;;8.90;99.90;;;;;;4983794;28;89050;-78
2021/12/29 17:17:55;;;;;;;8.23;3.80;;;8.90;99.90;;;;;;4969458;28;89043;-77
2021/12/29 17:20:21;;;;;;;9.18;3.88;;;8.90;99.90;;;;;;4984400;28;89649;-76
2021/12/29 17:22:47;;;;;;;6.70;3.22;;;8.90;99.90;;;;;;4983486;28;89404;-76
2021/12/29 17:25:15;;;;;;;6.70;2.80;;;8.90;99.90;;;;;;4983667;28;89020;-76
2021/12/29 17:27:42;;;;;;;6.07;2.63;;;8.90;99.90;;;;;;4965944;28;89003;-75
2021/12/29 17:30:09;;;;;;;5.65;2.70;;;8.80;99.90;;;;;;4983553;28;89287;-77
2021/12/29 17:32:36;;;;;;;6.80;2.97;;;8.80;99.90;;;;;;4982984;28;90981;-76
2021/12/29 17:35:04;;;;;;;5.00;2.67;;;8.80;99.90;;;;;;4983798;28;89070;-77
2021/12/29 17:37:29;;;;;;;4.70;3.03;;;8.80;99.90;;;;;;4983891;28;89104;-76
2021/12/29 17:39:56;;;;;;;4.40;3.05;;;8.80;99.90;;;;;;4983132;28;89961;-77
2021/12/29 17:42:22;;;;;;;4.93;3.15;;;8.80;99.90;;;;;;4982910;28;89090;-77
2021/12/29 17:44:47;;;;;;;6.43;3.40;;;8.70;99.90;;;;;;4983598;28;89051;-76
2021/12/29 17:47:13;;;;;;;5.72;3.75;;;8.80;99.90;;;;;;4985211;28;89241;-77
2021/12/29 17:49:38;;;;;;;6.68;3.55;;;8.80;99.90;;;;;;4983955;28;89078;-77
2021/12/29 17:52:04;;;;;;;6.10;3.65;;;8.70;99.90;;;;;;4984591;28;89288;-76
2021/12/29 17:54:30;;;;;;;5.28;3.13;;;8.80;99.90;;;;;;4984791;28;88982;-77
2021/12/29 17:56:57;;;;;;;6.22;3.53;;;8.70;99.90;;;;;;4965138;28;89138;-77
2021/12/29 17:59:22;;;;;;;6.97;3.50;;;8.80;99.90;;;;;;4983925;28;90404;-77
2021/12/29 18:01:48;;;;;;;6.32;3.45;;;8.80;99.90;;;;;;4963999;28;89660;-75